sensor_id;sensor_type;location;lat;lon;timestamp;temperature;humidity
6740;DHT22;3407;49.882;10.920;2024-02-21T00:03:31;7.90;99.00
6740;DHT22;3407;49.882;10.920;2024-02-21T00:08:27;7.90;99.90
6740;DHT22;3407;49.882;10.920;2024-02-21T00:13:22;8.00;99.90
6740;DHT22;3407;49.882;10.920;2024-02-21T00:18:18;8.00;99.90
6740;DHT22;3407;49.882;10.920;2024-02-21T00:23:13;8.00;99.90
6740;DHT22;3407;49.882;10.920;2024-02-21T00:28:09;8.00;1.00
6740;DHT22;3407;49.882;10.920;2024-02-21T00:33:04;8.00;99.90
6740;DHT22;3407;49.882;10.920;2024-02-21T00:38:00;8.00;20.20
6740;DHT22;3407;49.882;10.920;2024-02-21T00:42:56;8.00;40.60
6740;DHT22;3407;49.882;10.920;2024-02-21T00:47:51;7.90;1.00
6740;DHT22;3407;49.882;10.920;2024-02-21T00:52:47;7.90;99.90
6740;DHT22;3407;49.882;10.920;2024-02-21T00:57:42;7.80;81.50
6740;DHT22;3407;49.882;10.920;2024-02-21T01:02:38;7.70;1.00
6740;DHT22;3407;49.882;10.920;2024-02-21T01:07:33;7.80;1.00
6740;DHT22;3407;49.882;10.920;2024-02-21T01:12:29;7.80;99.90
6740;DHT22;3407;49.882;10.920;2024-02-21T01:17:24;7.80;1.00
6740;DHT22;3407;49.882;10.920;2024-02-21T01:22:20;7.80;95.40
6740;DHT22;3407;49.882;10.920;2024-02-21T01:27:15;7.80;99.90
6740;DHT22;3407;49.882;10.920;2024-02-21T01:32:11;7.80;99.90
6740;DHT22;3407;49.882;10.920;2024-02-21T01:37:07;7.80;1.00
6740;DHT22;3407;49.882;10.920;2024-02-21T01:42:03;7.70;74.40
6740;DHT22;3407;49.882;10.920;2024-02-21T01:46:58;7.70;99.90
6740;DHT22;3407;49.882;10.920;2024-02-21T01:51:54;7.80;99.90
6740;DHT22;3407;49.882;10.920;2024-02-21T01:56:50;7.80;99.90
6740;DHT22;3407;49.882;10.920;2024-02-21T02:01:46;7.80;99.90
6740;DHT22;3407;49.882;10.920;2024-02-21T02:06:42;7.80;99.90
6740;DHT22;3407;49.882;10.920;2024-02-21T02:11:39;7.80;1.00
6740;DHT22;3407;49.882;10.920;2024-02-21T02:16:34;7.80;1.00
6740;DHT22;3407;49.882;10.920;2024-02-21T02:21:34;7.80;1.00
6740;DHT22;3407;49.882;10.920;2024-02-21T02:26:31;7.80;14.30
6740;DHT22;3407;49.882;10.920;2024-02-21T02:31:26;7.80;1.00
6740;DHT22;3407;49.882;10.920;2024-02-21T02:36:23;7.80;99.90
6740;DHT22;3407;49.882;10.920;2024-02-21T02:41:18;7.70;1.00
6740;DHT22;3407;49.882;10.920;2024-02-21T02:46:14;7.70;99.90
6740;DHT22;3407;49.882;10.920;2024-02-21T02:51:09;7.70;81.70
6740;DHT22;3407;49.882;10.920;2024-02-21T02:56:05;7.70;1.00
6740;DHT22;3407;49.882;10.920;2024-02-21T03:01:00;7.70;99.90
6740;DHT22;3407;49.882;10.920;2024-02-21T03:05:57;7.70;1.00
6740;DHT22;3407;49.882;10.920;2024-02-21T03:10:53;7.80;1.00
6740;DHT22;3407;49.882;10.920;2024-02-21T03:15:48;7.80;1.00
6740;DHT22;3407;49.882;10.920;2024-02-21T03:20:44;7.80;27.00
6740;DHT22;3407;49.882;10.920;2024-02-21T03:25:39;7.70;1.00
6740;DHT22;3407;49.882;10.920;2024-02-21T03:30:35;7.40;99.90
6740;DHT22;3407;49.882;10.920;2024-02-21T03:35:30;7.20;1.00
6740;DHT22;3407;49.882;10.920;2024-02-21T03:40:26;7.00;1.00
6740;DHT22;3407;49.882;10.920;2024-02-21T03:45:21;6.90;1.00
6740;DHT22;3407;49.882;10.920;2024-02-21T03:50:17;6.90;1.00
6740;DHT22;3407;49.882;10.920;2024-02-21T03:55:13;6.90;1.00
6740;DHT22;3407;49.882;10.920;2024-02-21T04:00:08;6.90;1.00
6740;DHT22;3407;49.882;10.920;2024-02-21T04:05:06;6.90;1.00
6740;DHT22;3407;49.882;10.920;2024-02-21T04:10:06;6.90;1.00
6740;DHT22;3407;49.882;10.920;2024-02-21T04:15:02;6.80;1.00
6740;DHT22;3407;49.882;10.920;2024-02-21T04:20:03;6.80;1.00
6740;DHT22;3407;49.882;10.920;2024-02-21T04:25:00;6.80;1.00
6740;DHT22;3407;49.882;10.920;2024-02-21T04:29:56;6.80;1.00
6740;DHT22;3407;49.882;10.920;2024-02-21T04:34:51;6.70;1.00
6740;DHT22;3407;49.882;10.920;2024-02-21T04:39:48;6.60;1.00
6740;DHT22;3407;49.882;10.920;2024-02-21T04:44:44;6.60;1.00
6740;DHT22;3407;49.882;10.920;2024-02-21T04:49:40;6.50;1.00
6740;DHT22;3407;49.882;10.920;2024-02-21T04:54:35;6.50;1.00
6740;DHT22;3407;49.882;10.920;2024-02-21T04:59:31;6.40;1.00
6740;DHT22;3407;49.882;10.920;2024-02-21T05:04:27;6.30;1.00
6740;DHT22;3407;49.882;10.920;2024-02-21T05:09:23;6.30;1.90
6740;DHT22;3407;49.882;10.920;2024-02-21T05:14:18;6.30;1.00
6740;DHT22;3407;49.882;10.920;2024-02-21T05:19:13;6.20;1.00
6740;DHT22;3407;49.882;10.920;2024-02-21T05:24:09;6.20;1.00
6740;DHT22;3407;49.882;10.920;2024-02-21T05:29:04;6.20;1.00
6740;DHT22;3407;49.882;10.920;2024-02-21T05:34:00;6.20;1.00
6740;DHT22;3407;49.882;10.920;2024-02-21T05:38:59;6.10;1.00
6740;DHT22;3407;49.882;10.920;2024-02-21T05:43:55;6.00;1.00
6740;DHT22;3407;49.882;10.920;2024-02-21T05:48:50;5.90;8.10
6740;DHT22;3407;49.882;10.920;2024-02-21T05:53:46;5.90;14.00
6740;DHT22;3407;49.882;10.920;2024-02-21T05:58:41;5.80;10.40
6740;DHT22;3407;49.882;10.920;2024-02-21T06:03:37;5.70;18.00
6740;DHT22;3407;49.882;10.920;2024-02-21T06:08:32;5.70;22.30
6740;DHT22;3407;49.882;10.920;2024-02-21T06:13:28;5.70;21.70
6740;DHT22;3407;49.882;10.920;2024-02-21T06:18:23;5.60;17.60
6740;DHT22;3407;49.882;10.920;2024-02-21T06:23:19;5.60;29.50
6740;DHT22;3407;49.882;10.920;2024-02-21T06:28:14;5.70;41.70
6740;DHT22;3407;49.882;10.920;2024-02-21T06:33:10;5.80;37.70
6740;DHT22;3407;49.882;10.920;2024-02-21T06:38:05;5.80;29.10
6740;DHT22;3407;49.882;10.920;2024-02-21T06:43:01;5.90;27.10
6740;DHT22;3407;49.882;10.920;2024-02-21T06:47:56;6.00;31.70
6740;DHT22;3407;49.882;10.920;2024-02-21T06:52:52;6.10;21.80
6740;DHT22;3407;49.882;10.920;2024-02-21T06:57:47;6.10;11.50
6740;DHT22;3407;49.882;10.920;2024-02-21T07:02:43;6.20;16.20
6740;DHT22;3407;49.882;10.920;2024-02-21T07:07:39;6.40;9.80
6740;DHT22;3407;49.882;10.920;2024-02-21T07:12:35;6.60;1.00
6740;DHT22;3407;49.882;10.920;2024-02-21T07:17:32;6.70;1.00
6740;DHT22;3407;49.882;10.920;2024-02-21T07:22:27;6.80;1.00
6740;DHT22;3407;49.882;10.920;2024-02-21T07:27:23;7.00;1.00
6740;DHT22;3407;49.882;10.920;2024-02-21T07:32:23;7.30;1.00
6740;DHT22;3407;49.882;10.920;2024-02-21T07:37:18;7.80;1.00
6740;DHT22;3407;49.882;10.920;2024-02-21T07:42:14;8.40;1.00
6740;DHT22;3407;49.882;10.920;2024-02-21T07:47:11;8.80;99.90
6740;DHT22;3407;49.882;10.920;2024-02-21T07:52:06;9.00;99.90
6740;DHT22;3407;49.882;10.920;2024-02-21T07:57:03;9.30;1.00
6740;DHT22;3407;49.882;10.920;2024-02-21T08:01:58;9.60;99.90
6740;DHT22;3407;49.882;10.920;2024-02-21T08:06:54;9.40;99.90
6740;DHT22;3407;49.882;10.920;2024-02-21T08:11:56;9.50;1.00
6740;DHT22;3407;49.882;10.920;2024-02-21T08:16:52;10.20;99.90
6740;DHT22;3407;49.882;10.920;2024-02-21T08:21:51;11.10;99.90
6740;DHT22;3407;49.882;10.920;2024-02-21T08:26:46;10.50;99.90
6740;DHT22;3407;49.882;10.920;2024-02-21T08:31:42;9.80;4.60
6740;DHT22;3407;49.882;10.920;2024-02-21T08:36:37;9.20;99.90
6740;DHT22;3407;49.882;10.920;2024-02-21T08:41:33;8.90;99.90
6740;DHT22;3407;49.882;10.920;2024-02-21T08:46:29;8.90;1.00
6740;DHT22;3407;49.882;10.920;2024-02-21T08:51:25;8.90;99.90
6740;DHT22;3407;49.882;10.920;2024-02-21T08:56:20;9.00;99.90
6740;DHT22;3407;49.882;10.920;2024-02-21T09:01:16;9.10;52.60
6740;DHT22;3407;49.882;10.920;2024-02-21T09:06:11;9.10;99.90
6740;DHT22;3407;49.882;10.920;2024-02-21T09:11:09;9.20;95.30
6740;DHT22;3407;49.882;10.920;2024-02-21T09:16:05;9.20;99.90
6740;DHT22;3407;49.882;10.920;2024-02-21T09:21:01;9.20;99.90
6740;DHT22;3407;49.882;10.920;2024-02-21T09:25:57;9.30;99.90
6740;DHT22;3407;49.882;10.920;2024-02-21T09:30:53;9.40;99.90
6740;DHT22;3407;49.882;10.920;2024-02-21T09:35:48;9.50;99.90
6740;DHT22;3407;49.882;10.920;2024-02-21T09:40:45;9.70;99.90
6740;DHT22;3407;49.882;10.920;2024-02-21T09:45:40;9.70;33.40
6740;DHT22;3407;49.882;10.920;2024-02-21T09:50:40;9.70;1.00
6740;DHT22;3407;49.882;10.920;2024-02-21T09:55:39;10.30;1.00
6740;DHT22;3407;49.882;10.920;2024-02-21T10:00:36;11.60;1.00
6740;DHT22;3407;49.882;10.920;2024-02-21T10:05:32;12.10;1.00
6740;DHT22;3407;49.882;10.920;2024-02-21T10:10:28;11.90;1.00
6740;DHT22;3407;49.882;10.920;2024-02-21T10:15:25;11.70;1.00
6740;DHT22;3407;49.882;10.920;2024-02-21T10:20:20;11.90;1.00
6740;DHT22;3407;49.882;10.920;2024-02-21T10:25:16;12.30;1.00
6740;DHT22;3407;49.882;10.920;2024-02-21T10:30:14;12.20;1.00
6740;DHT22;3407;49.882;10.920;2024-02-21T10:35:10;12.40;1.00
6740;DHT22;3407;49.882;10.920;2024-02-21T10:40:09;12.50;1.00
6740;DHT22;3407;49.882;10.920;2024-02-21T10:45:07;12.80;99.90
6740;DHT22;3407;49.882;10.920;2024-02-21T10:50:04;12.90;99.90
6740;DHT22;3407;49.882;10.920;2024-02-21T10:55:04;13.30;99.90
6740;DHT22;3407;49.882;10.920;2024-02-21T11:00:03;13.80;99.90
6740;DHT22;3407;49.882;10.920;2024-02-21T11:05:04;14.50;99.90
6740;DHT22;3407;49.882;10.920;2024-02-21T11:10:00;16.00;99.90
6740;DHT22;3407;49.882;10.920;2024-02-21T11:15:07;17.40;99.90
6740;DHT22;3407;49.882;10.920;2024-02-21T11:20:15;18.30;99.90
6740;DHT22;3407;49.882;10.920;2024-02-21T11:25:10;19.40;99.90
6740;DHT22;3407;49.882;10.920;2024-02-21T11:30:12;20.00;99.90
6740;DHT22;3407;49.882;10.920;2024-02-21T11:35:08;20.40;99.90
6740;DHT22;3407;49.882;10.920;2024-02-21T11:40:04;20.00;99.90
6740;DHT22;3407;49.882;10.920;2024-02-21T11:45:02;19.50;99.90
6740;DHT22;3407;49.882;10.920;2024-02-21T11:49:58;19.00;99.90
6740;DHT22;3407;49.882;10.920;2024-02-21T11:54:54;18.20;99.90
6740;DHT22;3407;49.882;10.920;2024-02-21T11:59:52;17.50;99.90
6740;DHT22;3407;49.882;10.920;2024-02-21T12:04:50;17.30;99.90
6740;DHT22;3407;49.882;10.920;2024-02-21T12:09:47;17.10;99.90
6740;DHT22;3407;49.882;10.920;2024-02-21T12:14:42;17.00;99.90
6740;DHT22;3407;49.882;10.920;2024-02-21T12:19:38;16.60;99.90
6740;DHT22;3407;49.882;10.920;2024-02-21T12:24:34;16.80;99.90
6740;DHT22;3407;49.882;10.920;2024-02-21T12:29:31;17.10;99.90
6740;DHT22;3407;49.882;10.920;2024-02-21T12:34:26;17.20;99.90
6740;DHT22;3407;49.882;10.920;2024-02-21T12:39:22;17.00;99.90
6740;DHT22;3407;49.882;10.920;2024-02-21T12:44:18;16.70;99.90
6740;DHT22;3407;49.882;10.920;2024-02-21T12:49:13;16.40;99.90
6740;DHT22;3407;49.882;10.920;2024-02-21T12:54:09;16.00;99.90
6740;DHT22;3407;49.882;10.920;2024-02-21T12:59:06;15.60;99.90
6740;DHT22;3407;49.882;10.920;2024-02-21T13:04:05;15.80;99.90
6740;DHT22;3407;49.882;10.920;2024-02-21T13:09:00;15.70;99.90
6740;DHT22;3407;49.882;10.920;2024-02-21T13:13:59;16.10;99.90
6740;DHT22;3407;49.882;10.920;2024-02-21T13:18:54;16.60;99.90
6740;DHT22;3407;49.882;10.920;2024-02-21T13:23:50;16.60;99.90
6740;DHT22;3407;49.882;10.920;2024-02-21T13:28:45;16.40;99.90
6740;DHT22;3407;49.882;10.920;2024-02-21T13:33:41;16.20;99.90
6740;DHT22;3407;49.882;10.920;2024-02-21T13:38:37;15.80;99.90
6740;DHT22;3407;49.882;10.920;2024-02-21T13:43:34;15.60;99.90
6740;DHT22;3407;49.882;10.920;2024-02-21T13:48:29;15.40;99.90
6740;DHT22;3407;49.882;10.920;2024-02-21T13:53:25;15.20;99.90
6740;DHT22;3407;49.882;10.920;2024-02-21T13:58:20;15.10;99.90
6740;DHT22;3407;49.882;10.920;2024-02-21T14:03:17;15.00;99.90
6740;DHT22;3407;49.882;10.920;2024-02-21T14:08:14;15.00;99.90
6740;DHT22;3407;49.882;10.920;2024-02-21T14:13:10;15.00;99.90
6740;DHT22;3407;49.882;10.920;2024-02-21T14:18:06;14.80;99.90
6740;DHT22;3407;49.882;10.920;2024-02-21T14:23:04;14.40;99.90
6740;DHT22;3407;49.882;10.920;2024-02-21T14:28:00;14.00;99.90
6740;DHT22;3407;49.882;10.920;2024-02-21T14:32:56;13.90;99.90
6740;DHT22;3407;49.882;10.920;2024-02-21T14:37:52;13.60;99.90
6740;DHT22;3407;49.882;10.920;2024-02-21T14:42:48;13.30;99.90
6740;DHT22;3407;49.882;10.920;2024-02-21T14:47:43;13.20;99.90
6740;DHT22;3407;49.882;10.920;2024-02-21T14:52:39;13.00;99.90
6740;DHT22;3407;49.882;10.920;2024-02-21T14:57:35;12.90;99.90
6740;DHT22;3407;49.882;10.920;2024-02-21T15:02:31;12.90;99.90
6740;DHT22;3407;49.882;10.920;2024-02-21T15:07:27;12.70;99.90
6740;DHT22;3407;49.882;10.920;2024-02-21T15:12:23;12.60;99.90
6740;DHT22;3407;49.882;10.920;2024-02-21T15:17:18;12.50;99.90
6740;DHT22;3407;49.882;10.920;2024-02-21T15:22:14;12.50;99.90
6740;DHT22;3407;49.882;10.920;2024-02-21T15:27:09;12.30;99.90
6740;DHT22;3407;49.882;10.920;2024-02-21T15:32:05;12.10;99.90
6740;DHT22;3407;49.882;10.920;2024-02-21T15:37:01;12.00;99.90
6740;DHT22;3407;49.882;10.920;2024-02-21T15:41:56;11.90;99.90
6740;DHT22;3407;49.882;10.920;2024-02-21T15:46:52;11.80;99.90
6740;DHT22;3407;49.882;10.920;2024-02-21T15:51:48;11.70;99.90
6740;DHT22;3407;49.882;10.920;2024-02-21T15:56:44;11.70;99.90
6740;DHT22;3407;49.882;10.920;2024-02-21T16:01:42;11.60;99.90
6740;DHT22;3407;49.882;10.920;2024-02-21T16:06:38;11.50;99.90
6740;DHT22;3407;49.882;10.920;2024-02-21T16:11:33;11.50;99.90
6740;DHT22;3407;49.882;10.920;2024-02-21T16:16:29;11.40;99.90
6740;DHT22;3407;49.882;10.920;2024-02-21T16:21:26;11.30;99.90
6740;DHT22;3407;49.882;10.920;2024-02-21T16:26:22;11.10;99.90
6740;DHT22;3407;49.882;10.920;2024-02-21T16:31:17;11.00;99.90
6740;DHT22;3407;49.882;10.920;2024-02-21T16:36:23;10.90;99.90
6740;DHT22;3407;49.882;10.920;2024-02-21T16:41:19;10.70;99.90
6740;DHT22;3407;49.882;10.920;2024-02-21T16:46:15;10.60;99.90
6740;DHT22;3407;49.882;10.920;2024-02-21T16:51:11;10.40;99.90
6740;DHT22;3407;49.882;10.920;2024-02-21T16:56:07;10.20;99.90
6740;DHT22;3407;49.882;10.920;2024-02-21T17:01:04;10.00;99.90
6740;DHT22;3407;49.882;10.920;2024-02-21T17:06:02;9.90;99.90
6740;DHT22;3407;49.882;10.920;2024-02-21T17:10:57;9.80;99.90
6740;DHT22;3407;49.882;10.920;2024-02-21T17:15:53;9.70;99.90
6740;DHT22;3407;49.882;10.920;2024-02-21T17:20:49;9.70;99.90
6740;DHT22;3407;49.882;10.920;2024-02-21T17:25:45;9.70;99.90
6740;DHT22;3407;49.882;10.920;2024-02-21T17:30:40;9.60;1.00
6740;DHT22;3407;49.882;10.920;2024-02-21T17:35:36;9.60;1.00
6740;DHT22;3407;49.882;10.920;2024-02-21T17:40:32;9.60;1.00
6740;DHT22;3407;49.882;10.920;2024-02-21T17:45:28;9.60;1.00
6740;DHT22;3407;49.882;10.920;2024-02-21T17:50:23;9.60;1.00
6740;DHT22;3407;49.882;10.920;2024-02-21T17:55:19;9.60;1.00
6740;DHT22;3407;49.882;10.920;2024-02-21T18:00:14;9.60;1.00
6740;DHT22;3407;49.882;10.920;2024-02-21T18:05:11;9.60;1.00
6740;DHT22;3407;49.882;10.920;2024-02-21T18:10:07;9.50;1.00
6740;DHT22;3407;49.882;10.920;2024-02-21T18:15:03;9.30;1.00
6740;DHT22;3407;49.882;10.920;2024-02-21T18:19:59;9.30;1.00
6740;DHT22;3407;49.882;10.920;2024-02-21T18:24:54;9.30;1.00
6740;DHT22;3407;49.882;10.920;2024-02-21T18:29:50;9.20;1.00
6740;DHT22;3407;49.882;10.920;2024-02-21T18:34:45;9.20;1.00
6740;DHT22;3407;49.882;10.920;2024-02-21T18:39:41;9.20;1.00
6740;DHT22;3407;49.882;10.920;2024-02-21T18:44:37;9.20;1.00
6740;DHT22;3407;49.882;10.920;2024-02-21T18:49:32;9.20;1.00
6740;DHT22;3407;49.882;10.920;2024-02-21T18:54:28;9.20;1.00
6740;DHT22;3407;49.882;10.920;2024-02-21T18:59:23;9.20;1.00
6740;DHT22;3407;49.882;10.920;2024-02-21T19:04:19;9.30;1.00
6740;DHT22;3407;49.882;10.920;2024-02-21T19:09:14;9.30;99.90
6740;DHT22;3407;49.882;10.920;2024-02-21T19:14:10;9.30;99.90
6740;DHT22;3407;49.882;10.920;2024-02-21T19:19:06;9.20;99.90
6740;DHT22;3407;49.882;10.920;2024-02-21T19:24:01;9.20;99.90
6740;DHT22;3407;49.882;10.920;2024-02-21T19:28:57;9.20;1.00
6740;DHT22;3407;49.882;10.920;2024-02-21T19:33:52;9.30;1.00
6740;DHT22;3407;49.882;10.920;2024-02-21T19:38:49;9.30;1.00
6740;DHT22;3407;49.882;10.920;2024-02-21T19:43:46;9.30;1.00
6740;DHT22;3407;49.882;10.920;2024-02-21T19:48:42;9.30;1.00
6740;DHT22;3407;49.882;10.920;2024-02-21T19:53:37;9.30;1.00
6740;DHT22;3407;49.882;10.920;2024-02-21T19:58:33;9.30;1.00
6740;DHT22;3407;49.882;10.920;2024-02-21T20:03:28;9.40;1.00
6740;DHT22;3407;49.882;10.920;2024-02-21T20:08:24;9.50;99.90
6740;DHT22;3407;49.882;10.920;2024-02-21T20:13:20;9.50;99.90
6740;DHT22;3407;49.882;10.920;2024-02-21T20:18:16;9.60;99.90
6740;DHT22;3407;49.882;10.920;2024-02-21T20:23:12;9.60;99.90
6740;DHT22;3407;49.882;10.920;2024-02-21T20:28:10;9.70;99.90
6740;DHT22;3407;49.882;10.920;2024-02-21T20:33:07;9.80;99.90
6740;DHT22;3407;49.882;10.920;2024-02-21T20:38:02;9.80;99.90
6740;DHT22;3407;49.882;10.920;2024-02-21T20:43:01;9.80;99.90
6740;DHT22;3407;49.882;10.920;2024-02-21T20:48:00;9.70;99.90
6740;DHT22;3407;49.882;10.920;2024-02-21T20:52:56;9.70;99.90
6740;DHT22;3407;49.882;10.920;2024-02-21T20:57:52;9.70;99.90
6740;DHT22;3407;49.882;10.920;2024-02-21T21:02:48;9.60;99.90
6740;DHT22;3407;49.882;10.920;2024-02-21T21:07:45;9.70;99.90
6740;DHT22;3407;49.882;10.920;2024-02-21T21:12:40;9.80;99.90
6740;DHT22;3407;49.882;10.920;2024-02-21T21:17:36;9.90;99.90
6740;DHT22;3407;49.882;10.920;2024-02-21T21:22:31;9.90;99.90
6740;DHT22;3407;49.882;10.920;2024-02-21T21:27:27;9.90;99.90
6740;DHT22;3407;49.882;10.920;2024-02-21T21:32:23;10.00;99.90
6740;DHT22;3407;49.882;10.920;2024-02-21T21:37:18;10.00;99.90
6740;DHT22;3407;49.882;10.920;2024-02-21T21:42:14;10.00;99.90
6740;DHT22;3407;49.882;10.920;2024-02-21T21:47:09;10.00;99.90
6740;DHT22;3407;49.882;10.920;2024-02-21T21:52:05;9.90;99.90
6740;DHT22;3407;49.882;10.920;2024-02-21T21:57:01;9.90;99.90
6740;DHT22;3407;49.882;10.920;2024-02-21T22:01:56;9.90;99.90
6740;DHT22;3407;49.882;10.920;2024-02-21T22:06:53;10.00;99.90
6740;DHT22;3407;49.882;10.920;2024-02-21T22:11:49;10.00;99.90
6740;DHT22;3407;49.882;10.920;2024-02-21T22:16:44;10.00;99.90
6740;DHT22;3407;49.882;10.920;2024-02-21T22:21:40;10.10;99.90
6740;DHT22;3407;49.882;10.920;2024-02-21T22:26:37;10.00;99.90
6740;DHT22;3407;49.882;10.920;2024-02-21T22:31:32;10.00;99.90
6740;DHT22;3407;49.882;10.920;2024-02-21T22:36:28;10.00;99.90
6740;DHT22;3407;49.882;10.920;2024-02-21T22:41:23;10.00;99.90
6740;DHT22;3407;49.882;10.920;2024-02-21T22:46:19;10.10;99.90
6740;DHT22;3407;49.882;10.920;2024-02-21T22:51:16;10.10;99.90
6740;DHT22;3407;49.882;10.920;2024-02-21T22:56:13;10.00;99.90
6740;DHT22;3407;49.882;10.920;2024-02-21T23:01:14;9.80;99.90
6740;DHT22;3407;49.882;10.920;2024-02-21T23:06:12;9.60;99.90
6740;DHT22;3407;49.882;10.920;2024-02-21T23:11:07;9.60;99.90
6740;DHT22;3407;49.882;10.920;2024-02-21T23:16:03;9.70;99.90
6740;DHT22;3407;49.882;10.920;2024-02-21T23:20:59;9.80;99.90
6740;DHT22;3407;49.882;10.920;2024-02-21T23:25:54;9.80;99.90
6740;DHT22;3407;49.882;10.920;2024-02-21T23:30:50;9.80;99.90
6740;DHT22;3407;49.882;10.920;2024-02-21T23:35:45;9.90;99.90
6740;DHT22;3407;49.882;10.920;2024-02-21T23:40:41;9.80;99.90
6740;DHT22;3407;49.882;10.920;2024-02-21T23:45:37;9.70;99.90
6740;DHT22;3407;49.882;10.920;2024-02-21T23:50:32;9.50;1.00
6740;DHT22;3407;49.882;10.920;2024-02-21T23:55:28;9.30;1.00
